sensor_id;sensor_type;location;lat;lon;timestamp;temperature;humidity
2439;DHT22;14509;47.992;7.848;2023-07-13T00:25:57;26.50;36.70
2439;DHT22;14509;47.992;7.848;2023-07-13T00:27:59;26.50;36.90
2439;DHT22;14509;47.992;7.848;2023-07-13T00:30:01;26.50;37.10
2439;DHT22;14509;47.992;7.848;2023-07-13T00:32:05;26.50;37.00
2439;DHT22;14509;47.992;7.848;2023-07-13T00:34:10;26.50;37.10
2439;DHT22;14509;47.992;7.848;2023-07-13T00:36:12;26.50;37.00
2439;DHT22;14509;47.992;7.848;2023-07-13T00:38:15;26.50;37.00
2439;DHT22;14509;47.992;7.848;2023-07-13T00:40:18;26.60;37.10
2439;DHT22;14509;47.992;7.848;2023-07-13T00:42:21;26.60;37.10
2439;DHT22;14509;47.992;7.848;2023-07-13T00:44:22;26.60;41.40
2439;DHT22;14509;47.992;7.848;2023-07-13T00:46:27;26.80;37.30
2439;DHT22;14509;47.992;7.848;2023-07-13T00:48:31;26.70;37.20
2439;DHT22;14509;47.992;7.848;2023-07-13T00:50:33;26.70;36.70
2439;DHT22;14509;47.992;7.848;2023-07-13T00:52:39;26.70;36.60
2439;DHT22;14509;47.992;7.848;2023-07-13T00:54:44;26.80;37.60
2439;DHT22;14509;47.992;7.848;2023-07-13T00:56:50;26.70;38.00
2439;DHT22;14509;47.992;7.848;2023-07-13T00:58:55;26.70;39.90
2439;DHT22;14509;47.992;7.848;2023-07-13T01:00:58;26.70;44.40
2439;DHT22;14509;47.992;7.848;2023-07-13T01:03:00;26.70;42.90
2439;DHT22;14509;47.992;7.848;2023-07-13T01:05:09;27.60;44.90
2439;DHT22;14509;47.992;7.848;2023-07-13T01:07:12;26.70;42.70
2439;DHT22;14509;47.992;7.848;2023-07-13T01:09:15;26.50;43.10
2439;DHT22;14509;47.992;7.848;2023-07-13T01:11:19;26.60;42.70
2439;DHT22;14509;47.992;7.848;2023-07-13T01:13:21;26.50;42.60
2439;DHT22;14509;47.992;7.848;2023-07-13T01:15:45;27.00;43.50
2439;DHT22;14509;47.992;7.848;2023-07-13T01:17:47;26.50;44.80
2439;DHT22;14509;47.992;7.848;2023-07-13T01:19:49;26.50;45.30
2439;DHT22;14509;47.992;7.848;2023-07-13T01:21:53;26.40;44.60
2439;DHT22;14509;47.992;7.848;2023-07-13T01:23:55;26.40;43.70
2439;DHT22;14509;47.992;7.848;2023-07-13T01:25:57;26.20;43.80
2439;DHT22;14509;47.992;7.848;2023-07-13T01:28:00;26.20;43.90
2439;DHT22;14509;47.992;7.848;2023-07-13T01:30:02;26.20;43.90
2439;DHT22;14509;47.992;7.848;2023-07-13T01:32:05;26.10;43.60
2439;DHT22;14509;47.992;7.848;2023-07-13T01:34:08;26.10;43.70
2439;DHT22;14509;47.992;7.848;2023-07-13T01:36:11;26.00;43.70
2439;DHT22;14509;47.992;7.848;2023-07-13T01:38:20;26.00;43.90
2439;DHT22;14509;47.992;7.848;2023-07-13T01:40:22;25.90;43.90
2439;DHT22;14509;47.992;7.848;2023-07-13T01:42:25;25.90;43.90
2439;DHT22;14509;47.992;7.848;2023-07-13T01:44:27;25.80;43.90
2439;DHT22;14509;47.992;7.848;2023-07-13T01:46:29;25.80;43.90
2439;DHT22;14509;47.992;7.848;2023-07-13T01:48:31;25.70;44.10
2439;DHT22;14509;47.992;7.848;2023-07-13T01:50:33;26.00;44.20
2439;DHT22;14509;47.992;7.848;2023-07-13T01:52:35;25.60;44.50
2439;DHT22;14509;47.992;7.848;2023-07-13T01:54:39;25.50;44.60
2439;DHT22;14509;47.992;7.848;2023-07-13T01:56:41;26.80;45.70
2439;DHT22;14509;47.992;7.848;2023-07-13T01:58:43;25.40;45.00
2439;DHT22;14509;47.992;7.848;2023-07-13T02:00:48;25.40;45.30
2439;DHT22;14509;47.992;7.848;2023-07-13T02:02:50;25.30;45.40
2439;DHT22;14509;47.992;7.848;2023-07-13T02:04:52;25.30;45.50
2439;DHT22;14509;47.992;7.848;2023-07-13T02:06:55;25.20;45.60
2439;DHT22;14509;47.992;7.848;2023-07-13T02:08:58;25.20;45.70
2439;DHT22;14509;47.992;7.848;2023-07-13T02:11:02;25.30;45.90
2439;DHT22;14509;47.992;7.848;2023-07-13T02:13:05;25.20;46.00
2439;DHT22;14509;47.992;7.848;2023-07-13T02:15:08;25.20;46.10
2439;DHT22;14509;47.992;7.848;2023-07-13T02:17:10;25.20;46.10
2439;DHT22;14509;47.992;7.848;2023-07-13T02:19:13;25.10;46.10
2439;DHT22;14509;47.992;7.848;2023-07-13T02:21:14;25.10;46.00
2439;DHT22;14509;47.992;7.848;2023-07-13T02:23:16;25.10;46.00
2439;DHT22;14509;47.992;7.848;2023-07-13T02:25:21;25.70;46.60
2439;DHT22;14509;47.992;7.848;2023-07-13T02:27:25;25.30;47.30
2439;DHT22;14509;47.992;7.848;2023-07-13T02:29:27;25.00;46.70
2439;DHT22;14509;47.992;7.848;2023-07-13T02:31:28;25.00;46.90
2439;DHT22;14509;47.992;7.848;2023-07-13T02:33:30;25.40;47.10
2439;DHT22;14509;47.992;7.848;2023-07-13T02:35:32;25.00;46.80
2439;DHT22;14509;47.992;7.848;2023-07-13T02:37:33;25.00;46.90
2439;DHT22;14509;47.992;7.848;2023-07-13T02:39:36;24.80;46.70
2439;DHT22;14509;47.992;7.848;2023-07-13T02:41:38;25.00;46.80
2439;DHT22;14509;47.992;7.848;2023-07-13T02:43:41;24.80;46.60
2439;DHT22;14509;47.992;7.848;2023-07-13T02:45:44;25.00;46.70
2439;DHT22;14509;47.992;7.848;2023-07-13T02:47:45;24.90;46.40
2439;DHT22;14509;47.992;7.848;2023-07-13T02:49:47;24.90;46.20
2439;DHT22;14509;47.992;7.848;2023-07-13T02:51:49;24.80;46.30
2439;DHT22;14509;47.992;7.848;2023-07-13T02:53:51;24.70;46.60
2439;DHT22;14509;47.992;7.848;2023-07-13T02:55:52;24.80;46.90
2439;DHT22;14509;47.992;7.848;2023-07-13T02:57:54;24.50;47.00
2439;DHT22;14509;47.992;7.848;2023-07-13T02:59:59;24.50;47.20
2439;DHT22;14509;47.992;7.848;2023-07-13T03:02:01;24.50;47.30
2439;DHT22;14509;47.992;7.848;2023-07-13T03:04:03;24.40;47.60
2439;DHT22;14509;47.992;7.848;2023-07-13T03:06:08;24.40;47.70
2439;DHT22;14509;47.992;7.848;2023-07-13T03:08:18;24.40;47.90
2439;DHT22;14509;47.992;7.848;2023-07-13T03:10:22;24.20;47.90
2439;DHT22;14509;47.992;7.848;2023-07-13T03:12:25;24.10;48.00
2439;DHT22;14509;47.992;7.848;2023-07-13T03:14:27;24.00;48.20
2439;DHT22;14509;47.992;7.848;2023-07-13T03:16:31;24.00;48.40
2439;DHT22;14509;47.992;7.848;2023-07-13T03:18:35;23.90;48.50
2439;DHT22;14509;47.992;7.848;2023-07-13T03:20:39;24.00;48.70
2439;DHT22;14509;47.992;7.848;2023-07-13T03:22:42;23.90;48.70
2439;DHT22;14509;47.992;7.848;2023-07-13T03:24:44;23.90;48.60
2439;DHT22;14509;47.992;7.848;2023-07-13T03:26:46;23.90;48.00
2439;DHT22;14509;47.992;7.848;2023-07-13T03:28:49;23.90;48.50
2439;DHT22;14509;47.992;7.848;2023-07-13T03:31:00;23.90;48.50
2439;DHT22;14509;47.992;7.848;2023-07-13T03:33:03;23.90;48.70
2439;DHT22;14509;47.992;7.848;2023-07-13T03:35:06;23.90;48.80
2439;DHT22;14509;47.992;7.848;2023-07-13T03:37:08;23.90;49.00
2439;DHT22;14509;47.992;7.848;2023-07-13T03:39:11;23.90;49.00
2439;DHT22;14509;47.992;7.848;2023-07-13T03:41:33;23.90;49.10
2439;DHT22;14509;47.992;7.848;2023-07-13T03:43:35;23.80;49.20
2439;DHT22;14509;47.992;7.848;2023-07-13T03:45:37;23.80;49.40
2439;DHT22;14509;47.992;7.848;2023-07-13T03:47:38;23.60;49.40
2439;DHT22;14509;47.992;7.848;2023-07-13T03:49:42;23.60;49.70
2439;DHT22;14509;47.992;7.848;2023-07-13T03:51:43;23.60;49.70
2439;DHT22;14509;47.992;7.848;2023-07-13T03:53:46;23.50;49.70
2439;DHT22;14509;47.992;7.848;2023-07-13T03:55:50;23.50;49.70
2439;DHT22;14509;47.992;7.848;2023-07-13T03:57:58;23.40;49.60
2439;DHT22;14509;47.992;7.848;2023-07-13T04:00:00;23.40;49.80
2439;DHT22;14509;47.992;7.848;2023-07-13T04:02:02;23.40;49.90
2439;DHT22;14509;47.992;7.848;2023-07-13T04:04:06;23.40;50.00
2439;DHT22;14509;47.992;7.848;2023-07-13T04:06:14;23.40;50.20
2439;DHT22;14509;47.992;7.848;2023-07-13T04:08:21;23.40;50.40
2439;DHT22;14509;47.992;7.848;2023-07-13T04:10:23;23.40;50.30
2439;DHT22;14509;47.992;7.848;2023-07-13T04:12:25;23.90;50.60
2439;DHT22;14509;47.992;7.848;2023-07-13T04:14:26;23.50;50.10
2439;DHT22;14509;47.992;7.848;2023-07-13T04:16:29;23.60;50.00
2439;DHT22;14509;47.992;7.848;2023-07-13T04:18:31;23.70;50.00
2439;DHT22;14509;47.992;7.848;2023-07-13T04:20:32;23.70;49.70
2439;DHT22;14509;47.992;7.848;2023-07-13T04:22:35;23.80;49.60
2439;DHT22;14509;47.992;7.848;2023-07-13T04:24:37;23.90;49.50
2439;DHT22;14509;47.992;7.848;2023-07-13T04:26:39;24.00;49.50
2439;DHT22;14509;47.992;7.848;2023-07-13T04:28:41;24.00;49.30
2439;DHT22;14509;47.992;7.848;2023-07-13T04:30:43;24.00;49.20
2439;DHT22;14509;47.992;7.848;2023-07-13T04:32:44;24.00;49.10
2439;DHT22;14509;47.992;7.848;2023-07-13T04:34:46;24.10;49.20
2439;DHT22;14509;47.992;7.848;2023-07-13T04:36:53;24.00;49.10
2439;DHT22;14509;47.992;7.848;2023-07-13T04:38:57;24.00;49.10
2439;DHT22;14509;47.992;7.848;2023-07-13T04:41:00;23.90;49.20
2439;DHT22;14509;47.992;7.848;2023-07-13T04:43:02;23.80;49.40
2439;DHT22;14509;47.992;7.848;2023-07-13T04:45:05;23.80;49.80
2439;DHT22;14509;47.992;7.848;2023-07-13T04:47:07;23.70;49.90
2439;DHT22;14509;47.992;7.848;2023-07-13T04:49:09;23.70;50.00
2439;DHT22;14509;47.992;7.848;2023-07-13T04:51:11;23.70;50.20
2439;DHT22;14509;47.992;7.848;2023-07-13T04:53:12;23.70;50.40
2439;DHT22;14509;47.992;7.848;2023-07-13T04:55:16;23.60;50.40
2439;DHT22;14509;47.992;7.848;2023-07-13T04:57:19;23.70;50.50
2439;DHT22;14509;47.992;7.848;2023-07-13T04:59:21;23.70;50.30
2439;DHT22;14509;47.992;7.848;2023-07-13T05:01:23;23.80;50.40
2439;DHT22;14509;47.992;7.848;2023-07-13T05:03:25;23.80;50.20
2439;DHT22;14509;47.992;7.848;2023-07-13T05:05:27;24.40;50.50
2439;DHT22;14509;47.992;7.848;2023-07-13T05:07:29;23.80;49.80
2439;DHT22;14509;47.992;7.848;2023-07-13T05:09:31;23.90;49.90
2439;DHT22;14509;47.992;7.848;2023-07-13T05:11:34;23.80;50.10
2439;DHT22;14509;47.992;7.848;2023-07-13T05:13:36;23.80;50.30
2439;DHT22;14509;47.992;7.848;2023-07-13T05:15:38;23.80;50.40
2439;DHT22;14509;47.992;7.848;2023-07-13T05:17:40;23.80;56.10
2439;DHT22;14509;47.992;7.848;2023-07-13T05:19:42;23.80;50.50
2439;DHT22;14509;47.992;7.848;2023-07-13T05:21:43;23.90;50.50
2439;DHT22;14509;47.992;7.848;2023-07-13T05:23:47;24.00;50.40
2439;DHT22;14509;47.992;7.848;2023-07-13T05:25:49;24.20;50.40
2439;DHT22;14509;47.992;7.848;2023-07-13T05:27:52;24.20;49.90
2439;DHT22;14509;47.992;7.848;2023-07-13T05:29:53;24.40;49.80
2439;DHT22;14509;47.992;7.848;2023-07-13T05:31:55;24.10;48.90
2439;DHT22;14509;47.992;7.848;2023-07-13T05:33:57;24.60;49.50
2439;DHT22;14509;47.992;7.848;2023-07-13T05:35:59;24.70;49.30
2439;DHT22;14509;47.992;7.848;2023-07-13T05:38:02;24.80;49.10
2439;DHT22;14509;47.992;7.848;2023-07-13T05:40:04;24.90;48.80
2439;DHT22;14509;47.992;7.848;2023-07-13T05:42:06;24.90;48.60
2439;DHT22;14509;47.992;7.848;2023-07-13T05:44:09;24.90;48.40
2439;DHT22;14509;47.992;7.848;2023-07-13T05:46:11;24.90;48.40
2439;DHT22;14509;47.992;7.848;2023-07-13T05:48:13;24.90;48.40
2439;DHT22;14509;47.992;7.848;2023-07-13T05:50:15;25.20;48.70
2439;DHT22;14509;47.992;7.848;2023-07-13T05:52:17;24.90;48.60
2439;DHT22;14509;47.992;7.848;2023-07-13T05:54:19;24.90;48.40
2439;DHT22;14509;47.992;7.848;2023-07-13T05:56:21;24.90;48.30
2439;DHT22;14509;47.992;7.848;2023-07-13T05:58:23;25.00;48.20
2439;DHT22;14509;47.992;7.848;2023-07-13T06:00:26;25.00;48.00
2439;DHT22;14509;47.992;7.848;2023-07-13T06:02:28;25.10;47.90
2439;DHT22;14509;47.992;7.848;2023-07-13T06:04:30;25.20;47.70
2439;DHT22;14509;47.992;7.848;2023-07-13T06:06:32;25.30;47.30
2439;DHT22;14509;47.992;7.848;2023-07-13T06:08:34;25.60;47.20
2439;DHT22;14509;47.992;7.848;2023-07-13T06:10:36;25.40;46.60
2439;DHT22;14509;47.992;7.848;2023-07-13T06:12:38;25.40;46.40
2439;DHT22;14509;47.992;7.848;2023-07-13T06:14:40;25.40;45.50
2439;DHT22;14509;47.992;7.848;2023-07-13T06:16:43;26.20;46.20
2439;DHT22;14509;47.992;7.848;2023-07-13T06:18:46;25.40;45.60
2439;DHT22;14509;47.992;7.848;2023-07-13T06:20:48;25.50;45.70
